Time;durP1;ratioP1;P1;durP2;ratioP2;P2;SDS_P1;SDS_P2;PMS_P1;PMS_P2;Temp;Humidity;BMP_temperature;BMP_pressure;BME280_temperature;BME280_humidity;BME280_pressure;Samples;Min_cycle;Max_cycle;Signal;HPM_P1;HPM_P2
2023/05/19 00:01:06;;;;;;;10.40;3.85;;;;;;;;;;5259740;28;20024;-71
2023/05/19 00:03:43;;;;;;;7.30;3.40;;;;;;;;;;5260315;28;20114;-71
2023/05/19 00:06:15;;;;;;;7.95;3.63;;;;;;;;;;5261059;28;20056;-71
2023/05/19 00:08:46;;;;;;;7.70;3.08;;;;;;;;;;5259546;28;20049;-71
2023/05/19 00:11:18;;;;;;;5.10;2.92;;;;;;;;;;5261073;28;20460;-71
2023/05/19 00:13:49;;;;;;;6.00;3.05;;;;;;;;;;5260439;28;20032;-71
2023/05/19 00:16:21;;;;;;;9.48;3.67;;;;;;;;;;5260361;28;20024;-70
2023/05/19 00:18:53;;;;;;;6.10;3.25;;;;;;;;;;5264225;28;20013;-71
2023/05/19 00:21:24;;;;;;;5.45;3.13;;;;;;;;;;5264696;28;20013;-72
2023/05/19 00:23:56;;;;;;;10.20;3.08;;;;;;;;;;5263414;28;20067;-72
2023/05/19 00:26:27;;;;;;;7.65;3.42;;;;;;;;;;5264696;28;20018;-72
2023/05/19 00:28:58;;;;;;;4.43;3.20;;;;;;;;;;5264145;28;20033;-72
2023/05/19 00:31:30;;;;;;;7.50;3.65;;;;;;;;;;5263427;28;20025;-72
2023/05/19 00:34:01;;;;;;;6.15;3.05;;;;;;;;;;5264225;28;20021;-71
2023/05/19 00:36:33;;;;;;;9.65;4.35;;;;;;;;;;5263580;28;20074;-73
2023/05/19 00:39:04;;;;;;;8.68;4.15;;;;;;;;;;5264363;28;20025;-72
2023/05/19 00:41:35;;;;;;;6.93;3.67;;;;;;;;;;5264016;28;20152;-72
2023/05/19 00:44:06;;;;;;;7.35;3.33;;;;;;;;;;5263181;28;20480;-72
2023/05/19 00:46:38;;;;;;;6.38;3.45;;;;;;;;;;5263525;28;20017;-72
2023/05/19 00:49:09;;;;;;;7.05;3.33;;;;;;;;;;5264454;28;20368;-72
2023/05/19 00:51:40;;;;;;;6.50;3.15;;;;;;;;;;5262649;28;20027;-72
2023/05/19 00:54:11;;;;;;;7.57;3.42;;;;;;;;;;5264265;28;20480;-72
2023/05/19 00:56:42;;;;;;;4.65;3.33;;;;;;;;;;5263351;28;20035;-73
2023/05/19 00:59:14;;;;;;;8.40;3.40;;;;;;;;;;5263123;28;20044;-72
2023/05/19 01:01:47;;;;;;;7.78;3.47;;;;;;;;;;5263466;28;20024;-72
2023/05/19 01:04:20;;;;;;;7.40;3.03;;;;;;;;;;5263202;28;20546;-73
2023/05/19 01:06:54;;;;;;;5.20;3.40;;;;;;;;;;5263271;28;20096;-72
2023/05/19 01:09:25;;;;;;;5.45;2.83;;;;;;;;;;5263781;28;20025;-73
2023/05/19 01:11:57;;;;;;;5.00;3.38;;;;;;;;;;5262514;28;20043;-72
2023/05/19 01:14:29;;;;;;;6.20;3.47;;;;;;;;;;5263889;28;20025;-72
2023/05/19 01:17:04;;;;;;;5.68;2.67;;;;;;;;;;5263208;28;20029;-72
2023/05/19 01:19:35;;;;;;;6.57;3.63;;;;;;;;;;5262359;28;20021;-73
2023/05/19 01:22:21;;;;;;;6.40;3.25;;;;;;;;;;5263421;28;20082;-72
2023/05/19 01:24:58;;;;;;;8.88;3.13;;;;;;;;;;5263191;28;20033;-72
2023/05/19 01:27:38;;;;;;;4.90;2.85;;;;;;;;;;5262346;28;20025;-72
2023/05/19 01:30:09;;;;;;;6.28;3.20;;;;;;;;;;5262614;28;20431;-72
2023/05/19 01:32:40;;;;;;;5.78;3.05;;;;;;;;;;5262086;28;20037;-73
2023/05/19 01:35:14;;;;;;;5.88;2.60;;;;;;;;;;5263437;28;20115;-72
2023/05/19 01:37:45;;;;;;;7.15;2.97;;;;;;;;;;5262691;28;20112;-72
2023/05/19 01:40:18;;;;;;;7.80;2.92;;;;;;;;;;5262420;28;20112;-73
2023/05/19 01:42:51;;;;;;;6.43;3.40;;;;;;;;;;5262367;28;20144;-72
2023/05/19 01:45:22;;;;;;;8.25;3.47;;;;;;;;;;5262860;28;20104;-72
2023/05/19 01:47:55;;;;;;;5.63;3.00;;;;;;;;;;5261685;28;20476;-74
2023/05/19 01:50:26;;;;;;;6.25;3.63;;;;;;;;;;5263070;28;20027;-72
2023/05/19 01:52:58;;;;;;;6.63;3.33;;;;;;;;;;5262291;28;20037;-72
2023/05/19 01:55:29;;;;;;;6.97;3.28;;;;;;;;;;5262063;28;20183;-72
2023/05/19 01:58:10;;;;;;;6.18;3.22;;;;;;;;;;5262475;28;20120;-72
2023/05/19 02:00:50;;;;;;;10.65;3.63;;;;;;;;;;5261486;28;20406;-72
2023/05/19 02:03:40;;;;;;;5.75;3.80;;;;;;;;;;5262480;28;20051;-72
2023/05/19 02:06:14;;;;;;;7.82;3.25;;;;;;;;;;5262746;28;20472;-72
2023/05/19 02:09:02;;;;;;;8.15;3.38;;;;;;;;;;5261623;28;20468;-72
2023/05/19 02:11:38;;;;;;;7.90;3.47;;;;;;;;;;5262339;28;20147;-72
2023/05/19 02:14:14;;;;;;;7.03;3.10;;;;;;;;;;5262686;28;20032;-72
2023/05/19 02:16:46;;;;;;;4.72;2.53;;;;;;;;;;5261202;28;20036;-72
2023/05/19 02:19:21;;;;;;;6.38;3.42;;;;;;;;;;5262543;28;20021;-72
2023/05/19 02:21:52;;;;;;;6.78;3.38;;;;;;;;;;5261151;28;20392;-72
2023/05/19 02:24:24;;;;;;;7.30;3.88;;;;;;;;;;5262194;28;20041;-72
2023/05/19 02:26:55;;;;;;;11.57;3.50;;;;;;;;;;5261860;28;20055;-72
2023/05/19 02:29:26;;;;;;;4.68;3.47;;;;;;;;;;5261363;28;20028;-72
2023/05/19 02:31:57;;;;;;;7.85;3.35;;;;;;;;;;5261517;28;20460;-72
2023/05/19 02:34:28;;;;;;;8.25;3.70;;;;;;;;;;5262040;28;20012;-73
2023/05/19 02:37:00;;;;;;;7.65;3.50;;;;;;;;;;5260560;28;20020;-71
2023/05/19 02:39:34;;;;;;;5.25;3.08;;;;;;;;;;5261739;28;20013;-72
2023/05/19 02:42:05;;;;;;;6.68;3.30;;;;;;;;;;5261794;28;20398;-71
2023/05/19 02:44:36;;;;;;;6.25;3.28;;;;;;;;;;5260836;28;20033;-71
2023/05/19 02:47:07;;;;;;;5.47;3.55;;;;;;;;;;5261514;28;20063;-72
2023/05/19 02:49:39;;;;;;;8.48;3.47;;;;;;;;;;5261333;28;20029;-72
2023/05/19 02:52:10;;;;;;;5.70;3.42;;;;;;;;;;5261055;28;20017;-72
2023/05/19 02:54:42;;;;;;;6.75;3.55;;;;;;;;;;5261255;28;20032;-72
2023/05/19 02:57:13;;;;;;;11.20;3.83;;;;;;;;;;5260900;28;20025;-71
2023/05/19 02:59:44;;;;;;;5.53;3.17;;;;;;;;;;5260820;28;20076;-72
2023/05/19 03:02:15;;;;;;;8.50;3.90;;;;;;;;;;5261784;28;20463;-71
2023/05/19 03:04:46;;;;;;;6.82;3.75;;;;;;;;;;5260262;28;20033;-71
2023/05/19 03:07:23;;;;;;;7.90;3.97;;;;;;;;;;5261700;28;20131;-72
2023/05/19 03:09:54;;;;;;;7.90;3.88;;;;;;;;;;5260986;28;20488;-71
2023/05/19 03:12:26;;;;;;;8.82;4.43;;;;;;;;;;5260678;28;20056;-71
2023/05/19 03:14:57;;;;;;;7.72;3.80;;;;;;;;;;5261028;28;20029;-71
2023/05/19 03:17:32;;;;;;;8.10;4.40;;;;;;;;;;5261270;28;20044;-71
2023/05/19 03:20:04;;;;;;;8.10;3.92;;;;;;;;;;5260313;28;20017;-71
2023/05/19 03:22:35;;;;;;;9.60;4.20;;;;;;;;;;5260812;28;20049;-71
2023/05/19 03:25:07;;;;;;;7.25;3.85;;;;;;;;;;5260215;28;20045;-71
2023/05/19 03:27:38;;;;;;;8.90;3.70;;;;;;;;;;5260755;28;20052;-72
2023/05/19 03:30:09;;;;;;;6.72;4.45;;;;;;;;;;5261394;28;20021;-72
2023/05/19 03:32:41;;;;;;;8.75;4.30;;;;;;;;;;5259855;28;20032;-71
2023/05/19 03:35:12;;;;;;;7.03;3.85;;;;;;;;;;5261006;28;20039;-72
2023/05/19 03:37:43;;;;;;;5.28;3.38;;;;;;;;;;5260305;28;20035;-71
2023/05/19 03:40:14;;;;;;;6.70;3.85;;;;;;;;;;5260226;28;20379;-71
2023/05/19 03:42:45;;;;;;;7.75;3.90;;;;;;;;;;5260213;28;20746;-71
2023/05/19 03:45:17;;;;;;;7.30;3.75;;;;;;;;;;5260862;28;20075;-71
2023/05/19 03:47:48;;;;;;;6.07;3.60;;;;;;;;;;5259471;28;20647;-71
2023/05/19 03:50:20;;;;;;;7.32;3.15;;;;;;;;;;5261083;28;20484;-71
2023/05/19 03:52:52;;;;;;;8.13;4.47;;;;;;;;;;5263245;28;20021;-71
2023/05/19 03:55:24;;;;;;;7.25;4.03;;;;;;;;;;5264415;28;20410;-73
2023/05/19 03:57:55;;;;;;;9.15;4.47;;;;;;;;;;5264418;28;20029;-71
2023/05/19 04:00:27;;;;;;;6.72;3.83;;;;;;;;;;5264293;28;20035;-71
2023/05/19 04:02:59;;;;;;;5.63;3.40;;;;;;;;;;5264466;28;20017;-71
2023/05/19 04:05:30;;;;;;;8.40;4.82;;;;;;;;;;5264727;28;20029;-71
2023/05/19 04:08:01;;;;;;;8.27;5.05;;;;;;;;;;5263900;28;20021;-71
2023/05/19 04:10:32;;;;;;;8.05;4.95;;;;;;;;;;5264430;28;20100;-72
2023/05/19 04:13:03;;;;;;;6.68;4.63;;;;;;;;;;5264476;28;20032;-71
2023/05/19 04:15:35;;;;;;;7.45;4.63;;;;;;;;;;5263746;28;20047;-71
2023/05/19 04:18:06;;;;;;;9.45;5.18;;;;;;;;;;5264526;28;20020;-72
2023/05/19 04:20:37;;;;;;;15.92;5.46;;;;;;;;;;5264189;28;20028;-72
2023/05/19 04:23:09;;;;;;;13.18;6.28;;;;;;;;;;5263661;28;20051;-72
2023/05/19 04:25:41;;;;;;;8.40;5.72;;;;;;;;;;5263982;28;20025;-72
2023/05/19 04:28:12;;;;;;;5.65;4.85;;;;;;;;;;5264195;28;20048;-72
2023/05/19 04:30:45;;;;;;;13.15;6.28;;;;;;;;;;5263742;28;20052;-72
2023/05/19 04:33:16;;;;;;;9.88;5.78;;;;;;;;;;5264329;28;20024;-71
2023/05/19 04:35:49;;;;;;;12.05;5.70;;;;;;;;;;5262846;28;20013;-71
2023/05/19 04:38:20;;;;;;;10.32;4.90;;;;;;;;;;5264376;28;20434;-72
2023/05/19 04:40:52;;;;;;;7.88;5.18;;;;;;;;;;5263922;28;20017;-72
2023/05/19 04:43:23;;;;;;;14.38;6.28;;;;;;;;;;5263438;28;20029;-71
2023/05/19 04:45:54;;;;;;;10.25;6.05;;;;;;;;;;5263448;28;20021;-72
2023/05/19 04:48:26;;;;;;;8.60;5.10;;;;;;;;;;5264292;28;20132;-72
2023/05/19 04:51:00;;;;;;;10.75;6.38;;;;;;;;;;5262867;28;20032;-72
2023/05/19 04:53:31;;;;;;;8.55;5.68;;;;;;;;;;5263801;28;20098;-72
2023/05/19 04:56:02;;;;;;;8.82;5.45;;;;;;;;;;5263694;28;20056;-72
2023/05/19 04:58:34;;;;;;;11.70;6.72;;;;;;;;;;5262609;28;20060;-72
2023/05/19 05:01:05;;;;;;;10.93;5.50;;;;;;;;;;5263660;28;20033;-71
2023/05/19 05:03:36;;;;;;;13.85;7.20;;;;;;;;;;5262559;28;20029;-72
2023/05/19 05:06:07;;;;;;;10.02;6.13;;;;;;;;;;5263368;28;20112;-72
2023/05/19 05:08:40;;;;;;;14.45;7.95;;;;;;;;;;5262974;28;20468;-73
2023/05/19 05:11:11;;;;;;;8.90;6.95;;;;;;;;;;5262930;28;20016;-73
2023/05/19 05:13:42;;;;;;;12.52;8.27;;;;;;;;;;5263271;28;20464;-72
2023/05/19 05:16:14;;;;;;;13.95;8.13;;;;;;;;;;5263555;28;20025;-72
2023/05/19 05:18:45;;;;;;;11.85;7.15;;;;;;;;;;5262030;28;20118;-74
2023/05/19 05:21:17;;;;;;;13.70;9.23;;;;;;;;;;5263427;28;20088;-72
2023/05/19 05:23:49;;;;;;;8.73;6.88;;;;;;;;;;5262926;28;20028;-72
2023/05/19 05:26:23;;;;;;;10.85;7.28;;;;;;;;;;5262934;28;20358;-72
2023/05/19 05:28:54;;;;;;;14.68;8.90;;;;;;;;;;5262814;28;20058;-72
2023/05/19 05:31:25;;;;;;;11.77;6.78;;;;;;;;;;5263261;28;20014;-72
2023/05/19 05:33:57;;;;;;;13.50;7.13;;;;;;;;;;5261936;28;20021;-72
2023/05/19 05:36:29;;;;;;;11.30;6.80;;;;;;;;;;5263086;28;20063;-73
2023/05/19 05:39:01;;;;;;;10.30;6.03;;;;;;;;;;5261865;28;20395;-72
2023/05/19 05:41:34;;;;;;;11.43;7.38;;;;;;;;;;5262567;28;20017;-71
2023/05/19 05:44:05;;;;;;;9.63;6.45;;;;;;;;;;5262470;28;20429;-72
2023/05/19 05:46:36;;;;;;;8.05;6.13;;;;;;;;;;5261669;28;20080;-72
2023/05/19 05:49:07;;;;;;;9.95;5.70;;;;;;;;;;5262458;28;20104;-72
2023/05/19 05:51:39;;;;;;;10.63;6.80;;;;;;;;;;5262198;28;20460;-72
2023/05/19 05:54:11;;;;;;;10.20;7.10;;;;;;;;;;5262091;28;20032;-72
2023/05/19 05:56:42;;;;;;;9.85;6.45;;;;;;;;;;5262577;28;20013;-72
2023/05/19 05:59:14;;;;;;;11.68;6.53;;;;;;;;;;5262503;28;20059;-72
2023/05/19 06:01:45;;;;;;;10.80;6.55;;;;;;;;;;5261443;28;20357;-72
2023/05/19 06:04:16;;;;;;;8.82;6.68;;;;;;;;;;5262640;28;20476;-72
2023/05/19 06:06:48;;;;;;;8.52;5.47;;;;;;;;;;5260984;28;20087;-72
2023/05/19 06:09:19;;;;;;;9.50;5.75;;;;;;;;;;5262375;28;20017;-72
2023/05/19 06:11:50;;;;;;;13.18;6.65;;;;;;;;;;5262166;28;20017;-72
2023/05/19 06:14:21;;;;;;;9.43;5.60;;;;;;;;;;5261143;28;20263;-72
2023/05/19 06:16:52;;;;;;;9.15;6.32;;;;;;;;;;5261711;28;20044;-72
2023/05/19 06:19:24;;;;;;;9.75;5.88;;;;;;;;;;5262183;28;20539;-72
2023/05/19 06:21:55;;;;;;;9.82;5.63;;;;;;;;;;5260619;28;20107;-72
2023/05/19 06:24:26;;;;;;;11.73;4.90;;;;;;;;;;5262164;28;20454;-72
2023/05/19 06:26:57;;;;;;;10.48;4.97;;;;;;;;;;5261730;28;20105;-72
2023/05/19 06:29:28;;;;;;;8.15;5.05;;;;;;;;;;5261425;28;20013;-72
2023/05/19 06:32:00;;;;;;;7.78;4.53;;;;;;;;;;5261519;28;20041;-72
2023/05/19 06:34:31;;;;;;;8.40;5.45;;;;;;;;;;5261634;28;20368;-72
2023/05/19 06:37:02;;;;;;;13.00;6.50;;;;;;;;;;5261140;28;20036;-71
2023/05/19 06:39:34;;;;;;;8.73;5.55;;;;;;;;;;5261461;28;20100;-71
2023/05/19 06:42:05;;;;;;;7.95;4.75;;;;;;;;;;5260737;28;20467;-72
2023/05/19 06:44:36;;;;;;;8.07;5.30;;;;;;;;;;5261410;28;20446;-71
2023/05/19 06:47:07;;;;;;;9.65;5.72;;;;;;;;;;5261677;28;20051;-73
2023/05/19 06:49:38;;;;;;;9.90;5.00;;;;;;;;;;5260484;28;20052;-72
2023/05/19 06:52:10;;;;;;;7.03;5.22;;;;;;;;;;5261492;28;20063;-72
2023/05/19 06:54:41;;;;;;;6.50;4.15;;;;;;;;;;5260959;28;20471;-72
2023/05/19 06:57:12;;;;;;;10.20;4.93;;;;;;;;;;5260853;28;20013;-72
2023/05/19 06:59:45;;;;;;;10.05;5.20;;;;;;;;;;5260831;28;20053;-71
2023/05/19 07:02:16;;;;;;;11.45;5.40;;;;;;;;;;5261666;28;20303;-72
2023/05/19 07:04:47;;;;;;;9.60;4.75;;;;;;;;;;5259992;28;20068;-71
2023/05/19 07:07:19;;;;;;;5.63;3.97;;;;;;;;;;5261264;28;20509;-72
2023/05/19 07:09:50;;;;;;;7.22;4.60;;;;;;;;;;5265477;28;20043;-72
2023/05/19 07:12:21;;;;;;;7.03;4.57;;;;;;;;;;5280097;28;20020;-72
2023/05/19 07:14:52;;;;;;;10.70;4.63;;;;;;;;;;5281321;28;20017;-72
2023/05/19 07:17:23;;;;;;;9.25;4.47;;;;;;;;;;5281175;28;20013;-72
2023/05/19 07:19:55;;;;;;;9.73;4.30;;;;;;;;;;5280295;28;20112;-72
2023/05/19 07:22:26;;;;;;;7.25;4.10;;;;;;;;;;5280530;28;20379;-72
2023/05/19 07:24:57;;;;;;;6.88;3.75;;;;;;;;;;5279534;28;20474;-73
2023/05/19 07:27:28;;;;;;;11.38;4.47;;;;;;;;;;5281117;28;20040;-73
2023/05/19 07:29:59;;;;;;;10.32;3.92;;;;;;;;;;5281446;28;20024;-72
2023/05/19 07:32:31;;;;;;;7.30;4.18;;;;;;;;;;5280792;28;20052;-73
2023/05/19 07:35:02;;;;;;;7.97;4.20;;;;;;;;;;5281455;28;20027;-73
2023/05/19 07:37:33;;;;;;;4.93;2.97;;;;;;;;;;5280829;28;20066;-73
2023/05/19 07:40:08;;;;;;;7.43;3.80;;;;;;;;;;5280635;28;20520;-73
2023/05/19 07:42:39;;;;;;;6.90;3.85;;;;;;;;;;5281212;28;20277;-73
2023/05/19 07:45:10;;;;;;;10.43;4.07;;;;;;;;;;5281010;28;20028;-73
2023/05/19 07:47:42;;;;;;;7.63;4.50;;;;;;;;;;5281172;28;20017;-73
2023/05/19 07:50:13;;;;;;;6.03;4.03;;;;;;;;;;5281417;28;20020;-74
2023/05/19 07:52:44;;;;;;;5.78;3.22;;;;;;;;;;5280392;28;20523;-73
2023/05/19 07:55:16;;;;;;;8.43;3.50;;;;;;;;;;5281599;28;20016;-73
2023/05/19 07:57:48;;;;;;;10.40;4.35;;;;;;;;;;5280793;28;20056;-74
2023/05/19 08:00:19;;;;;;;6.80;3.28;;;;;;;;;;5281098;28;20024;-73
2023/05/19 08:02:51;;;;;;;6.15;3.97;;;;;;;;;;5280816;28;20021;-74
2023/05/19 08:05:24;;;;;;;9.07;3.60;;;;;;;;;;5281527;28;20028;-73
2023/05/19 08:07:56;;;;;;;7.65;3.20;;;;;;;;;;5280138;28;20031;-74
2023/05/19 08:10:27;;;;;;;10.60;3.55;;;;;;;;;;5281673;28;20028;-74
2023/05/19 08:12:58;;;;;;;6.27;2.83;;;;;;;;;;5281023;28;20104;-73
2023/05/19 08:15:29;;;;;;;6.43;3.17;;;;;;;;;;5280549;28;20278;-73
2023/05/19 08:18:01;;;;;;;7.30;3.40;;;;;;;;;;5281223;28;20350;-73
2023/05/19 08:20:33;;;;;;;8.75;2.50;;;;;;;;;;5280296;28;20438;-74
2023/05/19 08:23:04;;;;;;;8.38;2.72;;;;;;;;;;5279558;28;20117;-74
2023/05/19 08:25:35;;;;;;;7.47;2.38;;;;;;;;;;5280769;28;20509;-74
2023/05/19 08:28:06;;;;;;;6.82;2.67;;;;;;;;;;5280114;28;20378;-74
2023/05/19 08:30:38;;;;;;;6.65;2.70;;;;;;;;;;5281044;28;20009;-74
2023/05/19 08:33:09;;;;;;;8.32;2.53;;;;;;;;;;5281135;28;20047;-74
2023/05/19 08:35:41;;;;;;;7.45;2.40;;;;;;;;;;5279305;28;20016;-74
2023/05/19 08:38:12;;;;;;;10.13;2.83;;;;;;;;;;5280607;28;20029;-74
2023/05/19 08:40:45;;;;;;;9.93;3.30;;;;;;;;;;5282375;28;20021;-74
2023/05/19 08:43:16;;;;;;;4.55;1.58;;;;;;;;;;5282586;28;20645;-74
2023/05/19 08:45:47;;;;;;;4.93;2.17;;;;;;;;;;5282914;28;20024;-74
2023/05/19 08:48:19;;;;;;;6.80;1.70;;;;;;;;;;5283533;28;20427;-73
2023/05/19 08:50:53;;;;;;;6.20;2.40;;;;;;;;;;5282328;28;20387;-74
2023/05/19 08:53:26;;;;;;;3.70;1.00;;;;;;;;;;5284737;28;20082;-73
2023/05/19 08:56:00;;;;;;;7.20;1.73;;;;;;;;;;5283482;28;20113;-73
2023/05/19 08:58:32;;;;;;;6.65;1.50;;;;;;;;;;5284287;28;20028;-74
2023/05/19 09:01:04;;;;;;;6.32;1.20;;;;;;;;;;5284648;28;20467;-74
2023/05/19 09:03:37;;;;;;;5.03;1.20;;;;;;;;;;5283544;28;20028;-74
2023/05/19 09:06:11;;;;;;;4.25;1.00;;;;;;;;;;5284463;28;20475;-74
2023/05/19 09:08:42;;;;;;;6.55;1.13;;;;;;;;;;5283834;28;20013;-73
2023/05/19 09:11:14;;;;;;;3.58;0.75;;;;;;;;;;5283700;28;20483;-74
2023/05/19 09:13:45;;;;;;;4.33;0.80;;;;;;;;;;5284007;28;20490;-74
2023/05/19 09:16:17;;;;;;;5.50;0.77;;;;;;;;;;5284468;28;20265;-74
2023/05/19 09:18:55;;;;;;;3.20;0.80;;;;;;;;;;5282939;28;20062;-74
2023/05/19 09:21:29;;;;;;;5.55;1.17;;;;;;;;;;5284635;28;20817;-73
2023/05/19 09:24:05;;;;;;;2.83;0.65;;;;;;;;;;5283062;28;20036;-77
2023/05/19 09:26:39;;;;;;;3.10;0.70;;;;;;;;;;5284146;28;20467;-74
2023/05/19 09:29:11;;;;;;;4.88;0.75;;;;;;;;;;5284130;28;20016;-74
2023/05/19 09:31:49;;;;;;;2.83;0.60;;;;;;;;;;5283064;28;20371;-76
2023/05/19 09:34:22;;;;;;;6.85;0.45;;;;;;;;;;5284250;28;20028;-76
2023/05/19 09:36:53;;;;;;;3.42;0.55;;;;;;;;;;5283512;28;20061;-76
2023/05/19 09:39:25;;;;;;;3.30;0.50;;;;;;;;;;5283247;28;20107;-75
2023/05/19 09:41:58;;;;;;;3.78;0.60;;;;;;;;;;5283338;28;20994;-75
2023/05/19 09:44:30;;;;;;;4.60;0.55;;;;;;;;;;5283446;28;20021;-74
2023/05/19 09:47:02;;;;;;;5.78;0.60;;;;;;;;;;5282949;28;20456;-75
2023/05/19 09:49:33;;;;;;;4.15;0.50;;;;;;;;;;5282693;28;20066;-75
2023/05/19 09:52:04;;;;;;;2.88;0.50;;;;;;;;;;5282592;28;20377;-75
2023/05/19 09:54:36;;;;;;;5.28;0.50;;;;;;;;;;5283203;28;20154;-75
2023/05/19 09:57:07;;;;;;;2.63;0.50;;;;;;;;;;5283695;28;20327;-74
2023/05/19 09:59:39;;;;;;;5.13;0.60;;;;;;;;;;5271192;28;20072;-74
2023/05/19 10:02:14;;;;;;;3.42;0.55;;;;;;;;;;5283115;28;20023;-75
2023/05/19 10:04:46;;;;;;;5.43;0.60;;;;;;;;;;5282540;28;20454;-74
2023/05/19 10:07:18;;;;;;;4.18;0.75;;;;;;;;;;5282555;28;20151;-74
2023/05/19 10:09:50;;;;;;;5.75;0.75;;;;;;;;;;5280295;28;20043;-73
2023/05/19 10:12:21;;;;;;;4.15;0.60;;;;;;;;;;5281855;28;20024;-73
2023/05/19 10:14:53;;;;;;;3.05;0.52;;;;;;;;;;5272537;28;20015;-73
2023/05/19 10:17:25;;;;;;;4.88;0.60;;;;;;;;;;5282629;28;20036;-73
2023/05/19 10:19:57;;;;;;;3.80;0.50;;;;;;;;;;5281606;28;20459;-73
2023/05/19 10:22:28;;;;;;;3.78;0.55;;;;;;;;;;5282359;28;20016;-72
2023/05/19 10:24:59;;;;;;;6.53;0.60;;;;;;;;;;5282147;28;20478;-73
2023/05/19 10:27:31;;;;;;;3.35;0.60;;;;;;;;;;5281197;28;20017;-73
2023/05/19 10:30:26;;;;;;;5.28;0.80;;;;;;;;;;5281732;28;20478;-72
2023/05/19 10:32:59;;;;;;;4.65;0.90;;;;;;;;;;5276785;28;20063;-72
2023/05/19 10:35:30;;;;;;;5.85;0.60;;;;;;;;;;5281447;28;20017;-74
2023/05/19 10:38:10;;;;;;;3.35;0.60;;;;;;;;;;5281832;28;20029;-73
2023/05/19 10:40:44;;;;;;;2.42;0.50;;;;;;;;;;5281529;28;20020;-73
2023/05/19 10:43:34;;;;;;;4.57;0.70;;;;;;;;;;5280831;28;20463;-71
2023/05/19 10:46:05;;;;;;;4.45;1.02;;;;;;;;;;5279880;28;20052;-72
2023/05/19 10:48:36;;;;;;;5.53;0.70;;;;;;;;;;5279071;28;20060;-73
2023/05/19 10:51:10;;;;;;;4.13;0.60;;;;;;;;;;5281736;28;20766;-74
2023/05/19 10:53:45;;;;;;;5.10;0.65;;;;;;;;;;5281477;28;20265;-72
2023/05/19 10:56:29;;;;;;;3.38;0.60;;;;;;;;;;5281923;28;20028;-74
2023/05/19 10:59:02;;;;;;;2.95;0.77;;;;;;;;;;5281728;28;20132;-74
2023/05/19 11:01:34;;;;;;;4.65;0.88;;;;;;;;;;5281599;28;20025;-74
2023/05/19 11:04:06;;;;;;;4.05;0.80;;;;;;;;;;5281101;28;20469;-74
2023/05/19 11:06:39;;;;;;;3.20;0.60;;;;;;;;;;5281721;28;20491;-75
2023/05/19 11:09:17;;;;;;;4.45;0.70;;;;;;;;;;5281292;28;20074;-74
2023/05/19 11:11:52;;;;;;;2.97;0.73;;;;;;;;;;5281370;28;20017;-75
2023/05/19 11:14:25;;;;;;;4.90;0.80;;;;;;;;;;5282183;28;20028;-75
2023/05/19 11:16:57;;;;;;;3.58;0.80;;;;;;;;;;5280774;28;20020;-75
2023/05/19 11:19:29;;;;;;;5.63;0.80;;;;;;;;;;5281766;28;20017;-74
2023/05/19 11:22:11;;;;;;;3.65;0.57;;;;;;;;;;5281705;28;20044;-75
2023/05/19 11:24:44;;;;;;;6.88;0.70;;;;;;;;;;5280549;28;20039;-74
2023/05/19 11:27:26;;;;;;;5.53;0.68;;;;;;;;;;5282090;28;20017;-75
2023/05/19 11:30:01;;;;;;;3.85;0.60;;;;;;;;;;5281448;28;20055;-74
2023/05/19 11:32:33;;;;;;;5.13;0.70;;;;;;;;;;5280968;28;20017;-75
2023/05/19 11:35:05;;;;;;;3.53;0.70;;;;;;;;;;5281647;28;20075;-74
2023/05/19 11:37:36;;;;;;;6.32;0.70;;;;;;;;;;5280863;28;20105;-74
2023/05/19 11:40:08;;;;;;;5.78;0.70;;;;;;;;;;5281624;28;20016;-76
2023/05/19 11:42:39;;;;;;;8.40;0.75;;;;;;;;;;5280851;28;20032;-74
2023/05/19 11:45:10;;;;;;;3.22;0.50;;;;;;;;;;5280737;28;20021;-74
2023/05/19 11:47:44;;;;;;;4.10;0.70;;;;;;;;;;5281120;28;20174;-75
2023/05/19 11:50:16;;;;;;;4.95;0.70;;;;;;;;;;5281718;28;20258;-76
2023/05/19 11:52:47;;;;;;;3.60;0.57;;;;;;;;;;5278571;28;20027;-74
2023/05/19 11:55:20;;;;;;;2.35;0.50;;;;;;;;;;5281052;28;20388;-74
2023/05/19 11:58:01;;;;;;;3.85;0.60;;;;;;;;;;5280747;28;20050;-74
2023/05/19 12:00:39;;;;;;;3.65;0.65;;;;;;;;;;5280776;28;20052;-74
2023/05/19 12:03:11;;;;;;;4.10;0.73;;;;;;;;;;5281534;28;20062;-75
2023/05/19 12:05:46;;;;;;;3.70;0.73;;;;;;;;;;5280045;28;20445;-74
2023/05/19 12:08:17;;;;;;;3.33;0.80;;;;;;;;;;5280063;28;20452;-75
2023/05/19 12:10:51;;;;;;;4.10;0.77;;;;;;;;;;5278750;28;20537;-77
2023/05/19 12:13:22;;;;;;;4.95;0.75;;;;;;;;;;5280570;28;20316;-74
2023/05/19 12:15:57;;;;;;;4.07;0.70;;;;;;;;;;5282603;28;20023;-74
2023/05/19 12:18:30;;;;;;;3.65;0.70;;;;;;;;;;5283467;28;20099;-77
2023/05/19 12:21:02;;;;;;;6.65;0.77;;;;;;;;;;5282192;28;20027;-76
2023/05/19 12:23:33;;;;;;;4.95;0.73;;;;;;;;;;5284266;28;20016;-75
2023/05/19 12:26:04;;;;;;;4.53;0.80;;;;;;;;;;5285106;28;20031;-76
2023/05/19 12:28:36;;;;;;;3.08;0.60;;;;;;;;;;5284095;28;20016;-75
2023/05/19 12:31:07;;;;;;;3.33;0.70;;;;;;;;;;5284599;28;20055;-76
2023/05/19 12:33:38;;;;;;;4.40;0.70;;;;;;;;;;5283778;28;20020;-75
2023/05/19 12:36:12;;;;;;;8.07;0.80;;;;;;;;;;5285315;28;20271;-75
2023/05/19 12:38:44;;;;;;;5.80;0.70;;;;;;;;;;5284379;28;20024;-75
2023/05/19 12:41:16;;;;;;;7.18;0.80;;;;;;;;;;5284675;28;20420;-76
2023/05/19 12:43:47;;;;;;;4.22;0.75;;;;;;;;;;5284394;28;20060;-77
2023/05/19 12:46:19;;;;;;;4.03;0.85;;;;;;;;;;5284838;28;20016;-73
2023/05/19 12:48:50;;;;;;;4.20;0.80;;;;;;;;;;5283445;28;20031;-74
2023/05/19 12:51:21;;;;;;;3.63;0.70;;;;;;;;;;5284361;28;20325;-74
2023/05/19 12:53:52;;;;;;;7.10;0.73;;;;;;;;;;5284251;28;20016;-76
2023/05/19 12:56:25;;;;;;;5.17;0.60;;;;;;;;;;5284007;28;20315;-76
2023/05/19 12:58:59;;;;;;;3.75;0.60;;;;;;;;;;5282598;28;20369;-76
2023/05/19 13:01:30;;;;;;;4.78;0.60;;;;;;;;;;5284472;28;20375;-76
2023/05/19 13:04:02;;;;;;;4.28;0.70;;;;;;;;;;5283654;28;20036;-76
2023/05/19 13:06:33;;;;;;;3.85;0.85;;;;;;;;;;5284499;28;20427;-76
2023/05/19 13:09:06;;;;;;;4.45;0.60;;;;;;;;;;5283767;28;20112;-76
2023/05/19 13:11:37;;;;;;;4.97;0.70;;;;;;;;;;5284164;28;20020;-76
2023/05/19 13:14:09;;;;;;;3.17;0.65;;;;;;;;;;5284321;28;20020;-76
2023/05/19 13:16:41;;;;;;;3.38;0.60;;;;;;;;;;5282895;28;20012;-77
2023/05/19 13:19:13;;;;;;;3.65;0.60;;;;;;;;;;5284426;28;20533;-76
2023/05/19 13:21:49;;;;;;;3.70;0.60;;;;;;;;;;5283947;28;20027;-76
2023/05/19 13:24:20;;;;;;;4.95;0.60;;;;;;;;;;5282470;28;20536;-76
2023/05/19 13:26:51;;;;;;;3.92;0.52;;;;;;;;;;5283405;28;20099;-76
2023/05/19 13:29:22;;;;;;;3.60;0.80;;;;;;;;;;5284380;28;20028;-76
2023/05/19 13:31:54;;;;;;;4.83;0.60;;;;;;;;;;5282639;28;20350;-76
2023/05/19 13:34:25;;;;;;;3.63;0.50;;;;;;;;;;5284157;28;20274;-76
2023/05/19 13:36:56;;;;;;;5.85;0.90;;;;;;;;;;5282618;28;20859;-75
2023/05/19 13:39:27;;;;;;;5.13;0.50;;;;;;;;;;5284034;28;20036;-76
2023/05/19 13:41:58;;;;;;;4.17;0.63;;;;;;;;;;5283216;28;20764;-75
2023/05/19 13:44:30;;;;;;;2.00;0.60;;;;;;;;;;5282610;28;20684;-75
2023/05/19 13:47:01;;;;;;;4.45;0.60;;;;;;;;;;5283453;28;20468;-75
2023/05/19 13:49:32;;;;;;;2.53;0.50;;;;;;;;;;5283500;28;20352;-75
2023/05/19 13:52:03;;;;;;;3.40;0.70;;;;;;;;;;5282687;28;20271;-75
2023/05/19 13:54:35;;;;;;;2.97;0.70;;;;;;;;;;5283406;28;20361;-76
2023/05/19 13:57:06;;;;;;;7.28;0.80;;;;;;;;;;5283420;28;20029;-75
2023/05/19 13:59:37;;;;;;;3.20;0.77;;;;;;;;;;5282257;28;20048;-73
2023/05/19 14:02:08;;;;;;;6.43;1.10;;;;;;;;;;5283408;28;20024;-75
2023/05/19 14:04:39;;;;;;;4.70;0.60;;;;;;;;;;5282771;28;20031;-75
2023/05/19 14:07:11;;;;;;;4.70;0.60;;;;;;;;;;5282868;28;20017;-77
2023/05/19 14:09:42;;;;;;;7.70;1.58;;;;;;;;;;5282785;28;20340;-75
2023/05/19 14:12:14;;;;;;;5.45;0.73;;;;;;;;;;5282469;28;20016;-76
2023/05/19 14:14:47;;;;;;;3.22;0.50;;;;;;;;;;5282526;28;20137;-76
2023/05/19 14:17:18;;;;;;;5.53;0.50;;;;;;;;;;5283225;28;20552;-75
2023/05/19 14:19:50;;;;;;;3.50;0.60;;;;;;;;;;5281899;28;20052;-77
2023/05/19 14:22:21;;;;;;;1.92;0.50;;;;;;;;;;5283183;28;20263;-76
2023/05/19 14:24:52;;;;;;;4.85;0.70;;;;;;;;;;5282311;28;20166;-76
2023/05/19 14:27:23;;;;;;;3.38;0.70;;;;;;;;;;5282040;28;20046;-76
2023/05/19 14:29:56;;;;;;;4.57;0.80;;;;;;;;;;5282585;28;20776;-76
2023/05/19 14:32:27;;;;;;;5.20;0.63;;;;;;;;;;5283259;28;20259;-77
2023/05/19 14:34:58;;;;;;;5.43;0.93;;;;;;;;;;5281481;28;20382;-76
2023/05/19 14:37:30;;;;;;;3.67;0.60;;;;;;;;;;5282365;28;20262;-77
2023/05/19 14:40:03;;;;;;;5.95;0.65;;;;;;;;;;5282707;28;20298;-76
2023/05/19 14:42:34;;;;;;;4.32;0.57;;;;;;;;;;5281586;28;20047;-76
2023/05/19 14:45:06;;;;;;;8.25;0.75;;;;;;;;;;5282242;28;20440;-76
2023/05/19 14:47:37;;;;;;;7.88;0.85;;;;;;;;;;5281657;28;20009;-76
2023/05/19 14:50:08;;;;;;;6.30;1.27;;;;;;;;;;5282354;28;20017;-76
2023/05/19 14:52:39;;;;;;;5.70;0.80;;;;;;;;;;5281923;28;20352;-76
2023/05/19 14:55:10;;;;;;;9.68;0.70;;;;;;;;;;5281843;28;20262;-76
2023/05/19 14:57:42;;;;;;;4.03;0.68;;;;;;;;;;5281614;28;20025;-76
2023/05/19 15:00:13;;;;;;;6.33;1.43;;;;;;;;;;5282436;28;20100;-76
2023/05/19 15:02:44;;;;;;;6.72;0.80;;;;;;;;;;5280854;28;20274;-76
2023/05/19 15:05:16;;;;;;;3.42;0.75;;;;;;;;;;5282035;28;20082;-76
2023/05/19 15:07:47;;;;;;;5.53;0.80;;;;;;;;;;5281714;28;20409;-76
2023/05/19 15:10:19;;;;;;;4.50;0.60;;;;;;;;;;5281415;28;20020;-76